createdAt,value
2019-04-05T00:00:37.522Z,78.43
2019-04-05T00:04:41.139Z,78.42
2019-04-05T00:08:44.751Z,78.61
2019-04-05T00:12:48.364Z,78.54
2019-04-05T00:16:52.093Z,78.60
2019-04-05T00:20:55.711Z,78.61
2019-04-05T00:24:59.314Z,78.04
2019-04-05T00:29:03.229Z,78.04
2019-04-05T00:33:06.971Z,78.07
2019-04-05T00:37:10.663Z,78.07
2019-04-05T00:41:14.275Z,78.15
2019-04-05T00:45:27.448Z,78.34
2019-04-05T00:49:23.551Z,78.28
2019-04-05T00:53:27.268Z,78.33
2019-04-05T00:57:30.988Z,78.41
2019-04-05T01:01:35.000Z,78.42
2019-04-05T01:05:39.645Z,78.62
2019-04-05T01:09:43.360Z,78.73
2019-04-05T01:13:47.078Z,78.65
2019-04-05T01:17:51.099Z,78.61
2019-04-05T01:21:56.351Z,78.53
2019-04-05T01:26:01.762Z,78.49
2019-04-05T01:30:11.772Z,78.77
2019-04-05T01:34:15.547Z,78.81
2019-04-05T01:38:19.410Z,78.90
2019-04-05T01:42:23.330Z,78.77
2019-04-05T01:46:27.047Z,78.80
2019-04-05T01:50:31.073Z,78.77
2019-04-05T01:54:34.789Z,78.55
2019-04-05T01:58:38.402Z,78.26
2019-04-05T02:02:42.534Z,78.28
2019-04-05T02:06:46.260Z,78.36
2019-04-05T02:10:49.979Z,78.29
2019-04-05T02:14:53.606Z,78.40
2019-04-05T02:18:57.211Z,78.44
2019-04-05T02:23:01.054Z,78.35
2019-04-05T02:27:04.846Z,78.34
2019-04-05T02:31:08.572Z,78.34
2019-04-05T02:35:12.788Z,78.52
2019-04-05T02:39:16.503Z,78.51
2019-04-05T02:43:21.755Z,78.39
2019-04-05T02:47:25.779Z,78.36
2019-04-05T02:51:31.749Z,78.27
2019-04-05T02:55:37.761Z,78.49
2019-04-05T02:59:42.425Z,78.55
2019-04-05T03:03:46.379Z,78.61
2019-04-05T03:07:50.402Z,78.54
2019-04-05T03:11:54.625Z,78.42
2019-04-05T03:16:01.561Z,78.42
2019-04-05T03:20:06.636Z,78.62
2019-04-05T03:24:13.367Z,78.47
2019-04-05T03:28:17.570Z,78.47
2019-04-05T03:32:21.557Z,78.44
2019-04-05T03:36:25.685Z,78.53
2019-04-05T03:40:29.654Z,78.40
2019-04-05T03:44:33.609Z,78.38
2019-04-05T03:48:37.444Z,78.36
2019-04-05T03:52:41.314Z,78.51
2019-04-05T03:56:45.012Z,78.45
2019-04-05T04:00:48.757Z,78.73
2019-04-05T04:04:52.554Z,78.61
2019-04-05T04:08:56.733Z,78.60
2019-04-05T04:13:00.750Z,77.98
2019-04-05T04:17:12.760Z,78.34
2019-04-05T04:21:34.152Z,78.69
2019-04-05T04:25:39.186Z,78.77
2019-04-05T04:29:42.919Z,78.88
2019-04-05T04:33:47.351Z,78.42
2019-04-05T04:37:51.375Z,78.77
2019-04-05T04:41:55.194Z,79.05
2019-04-05T04:45:59.111Z,79.18
2019-04-05T04:50:03.008Z,79.32
2019-04-05T04:54:06.855Z,79.32
2019-04-05T04:58:10.876Z,79.26
2019-04-05T05:02:14.695Z,79.20
2019-04-05T05:06:18.512Z,79.21
2019-04-05T05:10:22.434Z,79.14
2019-04-05T05:14:27.199Z,79.14
2019-04-05T05:18:31.049Z,79.07
2019-04-05T05:22:35.326Z,79.01
2019-04-05T05:26:39.449Z,79.16
2019-04-05T05:30:43.266Z,79.09
2019-04-05T05:34:47.191Z,78.99
2019-04-05T05:38:51.475Z,79.04
2019-04-05T05:42:55.233Z,79.06
2019-04-05T05:46:58.950Z,78.90
2019-04-05T05:51:02.828Z,78.76
2019-04-05T05:55:06.994Z,78.47
2019-04-05T05:59:10.611Z,78.35
2019-04-05T06:03:16.662Z,78.23
2019-04-05T06:07:20.175Z,78.37
2019-04-05T06:11:24.011Z,78.02
2019-04-05T06:15:27.629Z,77.72
2019-04-05T06:19:31.237Z,77.82
2019-04-05T06:23:34.854Z,77.90
2019-04-05T06:27:38.568Z,77.84
2019-04-05T06:31:42.331Z,78.07
2019-04-05T06:35:45.941Z,78.17
2019-04-05T06:39:49.717Z,77.75
2019-04-05T06:43:53.279Z,77.86
2019-04-05T06:47:56.944Z,77.48
2019-04-05T06:52:00.558Z,77.38
2019-04-05T06:56:04.386Z,77.08
2019-04-05T07:00:08.295Z,76.73
2019-04-05T07:04:11.967Z,76.10
2019-04-05T07:08:18.143Z,76.46
2019-04-05T07:12:20.965Z,76.52
2019-04-05T07:16:24.653Z,76.52
2019-04-05T07:20:28.267Z,75.96
2019-04-05T07:24:31.878Z,76.29
2019-04-05T07:28:35.597Z,76.66
2019-04-05T07:32:39.209Z,76.02
2019-04-05T07:36:42.826Z,76.09
2019-04-05T07:40:46.538Z,75.96
2019-04-05T07:44:51.282Z,75.69
2019-04-05T07:48:54.997Z,75.37
2019-04-05T07:52:58.673Z,74.97
2019-04-05T07:57:02.439Z,74.52
2019-04-05T08:01:06.535Z,73.84
2019-04-05T08:05:10.169Z,74.63
2019-04-05T08:09:15.679Z,74.97
2019-04-05T08:13:20.615Z,74.94
2019-04-05T08:17:24.390Z,74.78
2019-04-05T08:21:28.004Z,74.99
2019-04-05T08:25:32.764Z,74.79
2019-04-05T08:29:36.357Z,74.47
2019-04-05T08:33:40.074Z,73.92
2019-04-05T08:37:44.211Z,74.35
2019-04-05T08:41:47.921Z,74.86
2019-04-05T08:45:51.528Z,75.32
2019-04-05T08:49:55.139Z,75.31
2019-04-05T08:53:58.861Z,74.86
2019-04-05T08:58:02.497Z,74.71
2019-04-05T09:02:06.088Z,74.61
2019-04-05T09:06:09.809Z,74.64
2019-04-05T09:10:13.723Z,73.23
2019-04-05T09:14:17.335Z,74.14
2019-04-05T09:18:20.953Z,73.35
2019-04-05T09:22:24.629Z,72.97
2019-04-05T09:26:28.278Z,72.72
2019-04-05T09:30:31.996Z,73.67
2019-04-05T09:34:35.610Z,72.73
2019-04-05T09:38:39.327Z,72.73
2019-04-05T09:42:43.046Z,72.02
2019-04-05T09:46:50.875Z,71.19
2019-04-05T09:50:52.013Z,70.26
2019-04-05T09:54:56.859Z,71.01
2019-04-05T09:59:00.470Z,71.18
2019-04-05T10:03:04.288Z,70.54
2019-04-05T10:07:08.515Z,70.65
2019-04-05T10:11:12.230Z,72.05
2019-04-05T10:15:16.360Z,73.09
2019-04-05T10:19:19.970Z,72.29
2019-04-05T10:23:23.584Z,71.15
2019-04-05T10:27:27.202Z,71.62
2019-04-05T10:31:30.812Z,70.57
2019-04-05T10:35:34.427Z,70.90
2019-04-05T10:39:38.042Z,70.89
2019-04-05T10:43:41.757Z,70.77
2019-04-05T10:47:45.327Z,70.15
2019-04-05T10:51:49.191Z,70.88
2019-04-05T10:55:52.911Z,70.59
2019-04-05T10:59:56.620Z,69.32
2019-04-05T11:04:00.345Z,68.41
2019-04-05T11:08:04.063Z,68.62
2019-04-05T11:12:08.757Z,68.62
2019-04-05T11:16:13.438Z,69.48
2019-04-05T11:20:21.780Z,68.98
2019-04-05T11:24:22.815Z,69.19
2019-04-05T11:28:26.531Z,68.79
2019-04-05T11:32:30.760Z,68.96
2019-04-05T11:36:34.850Z,67.79
2019-04-05T11:40:39.040Z,67.35
2019-04-05T11:44:43.337Z,67.19
2019-04-05T11:48:47.912Z,66.76
2019-04-05T11:52:51.694Z,67.25
2019-04-05T11:56:55.561Z,66.66
2019-04-05T12:01:19.026Z,67.41
2019-04-05T12:05:37.150Z,67.18
2019-04-05T12:09:40.840Z,65.83
2019-04-05T12:13:47.410Z,66.54
2019-04-05T12:17:49.777Z,66.58
2019-04-05T12:21:53.381Z,67.57
2019-04-05T12:25:57.098Z,67.15
2019-04-05T12:30:00.712Z,68.71
2019-04-05T12:34:05.361Z,68.76
2019-04-05T12:38:09.071Z,68.76
2019-04-05T12:42:13.033Z,67.66
2019-04-05T12:46:16.913Z,67.89
2019-04-05T12:50:20.625Z,68.62
2019-04-05T12:54:24.340Z,68.84
2019-04-05T12:58:27.952Z,70.20
2019-04-05T13:02:33.887Z,70.26
2019-04-05T13:06:37.023Z,69.11
2019-04-05T13:10:40.795Z,69.28
2019-04-05T13:14:44.309Z,68.86
2019-04-05T13:18:47.970Z,69.18
2019-04-05T13:22:51.587Z,68.01
2019-04-05T13:26:55.298Z,68.53
2019-04-05T13:30:59.020Z,69.74
2019-04-05T13:35:02.592Z,69.62
2019-04-05T13:39:07.679Z,69.76
2019-04-05T13:43:11.292Z,69.24
2019-04-05T13:47:15.058Z,68.70
2019-04-05T13:51:27.707Z,68.17
2019-04-05T13:55:24.079Z,68.15
2019-04-05T13:59:28.511Z,68.61
2019-04-05T14:03:32.583Z,67.85
2019-04-05T14:07:36.351Z,67.58
2019-04-05T14:11:40.143Z,68.44
2019-04-05T14:15:43.929Z,67.32
2019-04-05T14:19:48.748Z,67.66
2019-04-05T14:23:53.915Z,68.21
2019-04-05T14:27:57.512Z,67.95
2019-04-05T14:32:19.470Z,67.72
2019-04-05T14:36:06.668Z,67.74
2019-04-05T14:40:13.868Z,66.65
2019-04-05T14:44:16.352Z,67.66
2019-04-05T14:48:19.963Z,67.31
2019-04-05T14:52:25.644Z,66.64
2019-04-05T14:56:29.316Z,67.03
2019-04-05T15:00:33.370Z,67.00
2019-04-05T15:04:36.992Z,65.66
2019-04-05T15:08:40.817Z,66.99
2019-04-05T15:12:44.413Z,67.40
2019-04-05T15:16:48.131Z,68.75
2019-04-05T15:20:51.709Z,68.75
2019-04-05T15:24:56.380Z,70.58
2019-04-05T15:29:00.098Z,69.83
2019-04-05T15:33:04.306Z,69.37
2019-04-05T15:37:07.938Z,69.81
2019-04-05T15:41:11.657Z,69.90
2019-04-05T15:45:16.612Z,70.03
2019-04-05T15:49:21.560Z,69.10
2019-04-05T15:53:26.286Z,70.19
2019-04-05T15:57:33.462Z,70.42
2019-04-05T16:01:35.354Z,70.67
2019-04-05T16:05:39.174Z,70.49
2019-04-05T16:09:42.787Z,70.35
2019-04-05T16:13:46.403Z,70.50
2019-04-05T16:17:50.017Z,70.09
2019-04-05T16:21:53.583Z,70.29
2019-04-05T16:25:57.240Z,69.14
2019-04-05T16:30:00.864Z,70.08
2019-04-05T16:34:04.676Z,70.85
2019-04-05T16:38:08.312Z,71.20
2019-04-05T16:42:12.009Z,70.57
2019-04-05T16:46:15.635Z,70.53
2019-04-05T16:50:21.387Z,71.15
2019-04-05T16:54:25.001Z,71.37
2019-04-05T16:58:28.716Z,71.68
2019-04-05T17:02:33.405Z,71.47
2019-04-05T17:06:37.141Z,71.69
2019-04-05T17:10:40.918Z,71.98
2019-04-05T17:15:05.477Z,72.10
2019-04-05T17:19:09.094Z,72.52
2019-04-05T17:23:12.710Z,71.69
2019-04-05T17:27:16.298Z,71.70
2019-04-05T17:31:20.013Z,71.15
2019-04-05T17:35:23.629Z,71.94
2019-04-05T17:39:27.343Z,71.29
2019-04-05T17:43:31.060Z,70.94
2019-04-05T17:47:34.777Z,71.46
2019-04-05T17:51:38.389Z,71.34
2019-04-05T17:55:42.356Z,72.28
2019-04-05T17:59:48.383Z,72.43
2019-04-05T18:03:52.101Z,72.32
2019-04-05T18:07:55.815Z,71.58
2019-04-05T18:11:59.433Z,71.52
2019-04-05T18:16:03.358Z,72.12
2019-04-05T18:20:09.894Z,72.49
2019-04-05T18:24:13.648Z,72.87
2019-04-05T18:28:17.270Z,73.23
2019-04-05T18:32:20.882Z,73.50
2019-04-05T18:36:24.694Z,74.00
2019-04-05T18:40:39.487Z,74.49
2019-04-05T18:44:34.589Z,74.65
2019-04-05T18:48:38.212Z,74.18
2019-04-05T18:52:44.245Z,74.42
2019-04-05T18:56:47.988Z,74.14
2019-04-05T19:00:53.563Z,74.52
2019-04-05T19:04:57.497Z,74.63
2019-04-05T19:09:01.624Z,75.02
2019-04-05T19:13:05.766Z,75.16
2019-04-05T19:17:22.851Z,75.50
2019-04-05T19:21:15.851Z,75.95
2019-04-05T19:25:20.124Z,76.21
2019-04-05T19:29:24.355Z,76.35
2019-04-05T19:49:50.840Z,73.67
2019-04-05T19:54:01.328Z,72.80
2019-04-05T19:58:02.979Z,73.61
2019-04-05T20:02:06.798Z,73.86
2019-04-05T20:06:10.720Z,73.24
2019-04-05T20:10:14.651Z,72.43
2019-04-05T20:14:18.286Z,72.51
2019-04-05T20:18:22.040Z,73.75
2019-04-05T20:22:25.687Z,74.00
2019-04-05T20:26:29.301Z,74.47
2019-04-05T20:30:32.916Z,74.33
2019-04-05T20:34:36.734Z,74.09
2019-04-05T20:38:41.378Z,74.47
2019-04-05T20:42:44.986Z,74.58
2019-04-05T20:46:48.905Z,74.50
2019-04-05T20:50:52.519Z,74.19
2019-04-05T20:54:56.239Z,74.62
2019-04-05T20:59:01.281Z,74.69
2019-04-05T21:03:05.103Z,74.89
2019-04-05T21:07:08.719Z,74.35
2019-04-05T21:11:12.432Z,73.40
2019-04-05T21:15:16.043Z,72.83
2019-04-05T21:19:19.607Z,72.48
2019-04-05T21:23:23.273Z,73.01
2019-04-05T21:27:26.897Z,73.43
2019-04-05T21:31:30.618Z,73.24
2019-04-05T21:35:34.229Z,73.92
2019-04-05T21:39:38.763Z,74.02
2019-04-05T21:43:44.527Z,74.10
2019-04-05T21:47:48.142Z,74.44
2019-04-05T21:51:51.753Z,74.38
2019-04-05T21:55:55.469Z,74.36
2019-04-05T21:59:59.082Z,74.12
2019-04-05T22:04:03.122Z,74.80
2019-04-05T22:08:06.730Z,74.90
2019-04-05T22:12:10.338Z,75.12
2019-04-05T22:16:14.253Z,75.04
2019-04-05T22:20:18.804Z,75.16
2019-04-05T22:24:22.406Z,75.73
2019-04-05T22:28:26.325Z,74.89
2019-04-05T22:32:29.937Z,75.58
2019-04-05T22:36:33.654Z,76.24
2019-04-05T22:40:37.269Z,76.29
2019-04-05T22:44:41.618Z,75.92
2019-04-05T22:48:45.518Z,75.56
2019-04-05T22:52:49.131Z,75.48
2019-04-05T22:56:52.682Z,75.14
2019-04-05T23:00:56.405Z,76.40
2019-04-05T23:05:01.015Z,76.16
2019-04-05T23:09:07.039Z,75.81
2019-04-05T23:13:10.786Z,76.01
2019-04-05T23:17:14.736Z,75.71
2019-04-05T23:21:18.326Z,75.68
2019-04-05T23:25:22.506Z,75.84
2019-04-05T23:29:26.264Z,76.15
2019-04-05T23:33:29.876Z,76.60
2019-04-05T23:37:33.592Z,75.56
2019-04-05T23:41:37.305Z,75.54
2019-04-05T23:45:40.923Z,75.85
2019-04-05T23:49:44.639Z,75.65
2019-04-05T23:53:48.253Z,75.52
2019-04-05T23:57:51.868Z,76.08
